Pays
Station

 

Conditions  météo  pour  Whidbey Island, Naval Air Station  -  Etats-Unis    Etats-Unis

  
8 °C
    
 
 

METAR pour Whidbey Island, Naval Air Station :

KNUW 191056Z 10007KT 10SM SCT050 BKN075 BKN110 08/05 A3018 RMK AO2 SLP218 T00830050 $

 

Voici le bulletin pour Whidbey Island, Naval Air Station - Etats-Unis.
 
Le bulletin a été fait il y a 32 minutes, à 10:56 UTC .
Le vent soufflait à la vitesse de 3.6 mètres par seconde de Est (100°).
 
La température était de 8 °C, avec un point de rosée à 5 °C.
La pression atmosphérique était de 1022 hPa.
L'humidité relative était de 81.3%.
 
Il y avait 3 à 4/8ème de nébulosité à une hauteur de 1524 mètres, 5 à 7/8ème de nébulosité à une hauteur de 2286 mètres et 5 à 7/8ème de nébulosité à une hauteur de 3353 mètres.
 
La visibilité globale était de 16.1 kilomètres.
 

 
 
 

Pays :   A   B   C   D   E   F   G   H   I   J   K   L   M   N   O   P   Q   R   S   T   U   V   W   Y   Z

 

Partenaires :  Info Météo avec Met'info
Météo Marine avec MeteoMarine.net
Infos Site  |  Infos Légales  |  Crédits  |  Confidentialité
Contactez-nous  |  Ajouter aux favoris
© 2013-2018 METAR - Tous droits réservés